Currie, Minnesota
Current Conditions -  °F | °C
As of 11:34 PM on Wednesday 22 Oct 2014 (Local Time) from KDVP Reporting Station
Overcast Overcast  
Wind Chill: 55°   Ceiling: 600
Heat Index: 55°   Visibility: 7mi
Dew Point: 55°   Wind: 8mph
Humidity: 99%   Direction: 250°WSW
Pressure: 30.02"   Gusts: NA
Location:  44.07°N, 95.67°W
Report Text: KDVP 230434Z AUTO 25007KT 7SM OVC006 13/13 A3002 RMK AO2 T01280126
Loading
Personal Weather Stations






























Interactive Weather Map
Tropical Storm Tracking
New forecast layout! Learn more

10-Day Weather Forecast

Advertisements
Track Severe Weather on mobile